Airfield :
LOGIN :

Register | Disclaimer

   EN    FR    IT 

 










Legend :    VFR   Marginal VFR   IFR   Intensive IFR   Very Intensive IFR
Visi :
Ceiling :
>= 8 km
>= 3000ft
5 to 8 km
1000 to 3000 ft
1500m to 5 km
500 to 1000 ft
800 to 1500m
200 to 500 ft
< 800m
< 200 ft
Symbols :   Thunderstorms  Fog  Heavy snow  Heavy precipitations  Wind > 20 kt
SIGMETs :     Misc.  Thunderstorms  Icing  Turbulence  Mountain Waves  Volcanic Ashes






- Airport Elevation : 124 ft
- IATA code : NHT


EGWU - RAF Northolt

CURRENT METAR :
  • 041150Z 29011KT 9999 SCT042 20/09 Q1021 NOSIG

EXPIRED METARs :
  • 041120Z 31010KT 9999 SCT042 FEW180 21/09 Q1021 NOSIG RMK BLU BLU
  • 041050Z 30009KT 9999 SCT039 19/08 Q1021 NOSIG RMK BLU BLU
  • 041020Z 29007KT 9999 SCT037 20/09 Q1021 NOSIG RMK BLU BLU
  • 040950Z 27010KT 9999 FEW037 FEW160 19/09 Q1021 NOSIG
  • 040920Z 30008KT 9999 FEW038 BKN180 19/08 Q1021 NOSIG RMK BLU BLU
  • 040850Z 29007KT 9999 FEW040 BKN180 18/08 Q1021 NOSIG RMK BLU BLU

TAF TAF EGWU
Valid from the 04 at 12:00 until the 05 at 06:00 UTC


041039Z 0412/0506 29009KT 9999 SCT040



MET'MAP, your aeronautical weather chart ! - Copyright ORBIFLY December 2007 - Disclaimer

ORBIFLY MET'MAP TEAM :

Programming & Development : Alexandra Zaïnal
Original concept : Baudouin d'Aumeries
Technical & hardware support : Manuel Goepfert
Assistance : Marc-Olivier Méhu




SOURCES & CREDITS :

   NOAA